createdAt,value
2023-02-12T00:01:56.340Z,10.13
2023-02-12T00:04:43.282Z,22.00
2023-02-12T00:07:31.280Z,12.90
2023-02-12T00:10:19.675Z,13.47
2023-02-12T00:13:06.546Z,16.67
2023-02-12T00:15:54.023Z,8.77
2023-02-12T00:18:40.805Z,14.27
2023-02-12T00:21:27.673Z,12.53
2023-02-12T00:24:14.407Z,15.93
2023-02-12T00:27:02.402Z,10.40
2023-02-12T00:29:49.075Z,21.33
2023-02-12T00:32:37.425Z,10.93
2023-02-12T00:35:24.300Z,14.97
2023-02-12T00:38:11.096Z,19.43
2023-02-12T00:40:57.982Z,12.23
2023-02-12T00:43:46.762Z,12.27
2023-02-12T00:46:33.300Z,12.43
2023-02-12T00:49:20.471Z,11.87
2023-02-12T00:52:07.473Z,13.60
2023-02-12T00:54:54.268Z,17.73
2023-02-12T00:57:41.210Z,10.70
2023-02-12T01:00:29.387Z,15.10
2023-02-12T01:03:17.440Z,19.97
2023-02-12T01:06:03.920Z,21.07
2023-02-12T01:08:52.621Z,25.60
2023-02-12T01:11:39.870Z,16.13
2023-02-12T01:14:26.916Z,10.70
2023-02-12T01:17:14.933Z,8.33
2023-02-12T01:20:07.201Z,16.77
2023-02-12T01:22:53.968Z,14.17
2023-02-12T01:25:40.591Z,13.10
2023-02-12T01:28:27.402Z,18.90
2023-02-12T01:31:16.482Z,11.67
2023-02-12T01:34:05.191Z,9.23
2023-02-12T01:36:53.252Z,12.13
2023-02-12T01:39:40.055Z,13.57
2023-02-12T01:42:26.593Z,8.90
2023-02-12T01:45:45.846Z,9.37
2023-02-12T01:48:38.396Z,11.50
2023-02-12T01:51:27.290Z,11.23
2023-02-12T01:54:16.221Z,9.23
2023-02-12T01:57:05.221Z,15.23
2023-02-12T01:59:54.600Z,10.93
2023-02-12T02:02:41.668Z,9.83
2023-02-12T02:05:34.592Z,7.73
2023-02-12T02:08:23.582Z,12.10
2023-02-12T02:11:24.823Z,7.97
2023-02-12T02:14:29.013Z,11.97
2023-02-12T02:17:31.550Z,13.10
2023-02-12T02:20:42.889Z,11.40
2023-02-12T02:23:48.879Z,4.47
2023-02-12T02:27:08.652Z,9.10
2023-02-12T02:30:26.000Z,12.20
2023-02-12T02:33:22.963Z,16.63
2023-02-12T02:36:26.211Z,14.63
2023-02-12T02:39:20.243Z,13.73
2023-02-12T02:42:12.311Z,11.37
2023-02-12T02:45:04.878Z,14.23
2023-02-12T02:47:59.590Z,11.43
2023-02-12T02:50:51.064Z,10.27
2023-02-12T02:53:43.502Z,19.80
2023-02-12T02:56:31.821Z,20.70
2023-02-12T02:59:22.896Z,19.93
2023-02-12T03:02:16.964Z,15.07
2023-02-12T03:05:10.869Z,15.53
2023-02-12T03:08:02.819Z,14.07
2023-02-12T03:10:55.148Z,12.63
2023-02-12T03:13:47.447Z,10.80
2023-02-12T03:16:37.964Z,17.37
2023-02-12T03:19:28.703Z,16.50
2023-02-12T03:22:19.453Z,20.83
2023-02-12T03:25:14.370Z,16.43
2023-02-12T03:28:08.129Z,18.00
2023-02-12T03:31:02.766Z,10.50
2023-02-12T03:34:00.265Z,17.17
2023-02-12T03:36:53.241Z,19.57
2023-02-12T03:39:50.865Z,16.60
2023-02-12T03:42:46.199Z,23.00
2023-02-12T03:45:48.044Z,13.03
2023-02-12T03:48:39.690Z,19.00
2023-02-12T03:51:30.309Z,14.43
2023-02-12T03:54:21.219Z,18.43
2023-02-12T03:57:13.382Z,8.40
2023-02-12T04:00:02.677Z,11.17
2023-02-12T04:03:01.196Z,6.83
2023-02-12T04:05:48.028Z,13.17
2023-02-12T04:08:34.967Z,15.97
2023-02-12T04:11:31.957Z,15.70
2023-02-12T04:14:28.553Z,11.70
2023-02-12T04:17:23.524Z,17.50
2023-02-12T04:20:18.166Z,9.37
2023-02-12T04:23:17.916Z,8.67
2023-02-12T04:26:13.838Z,10.47
2023-02-12T04:29:16.830Z,16.40
2023-02-12T04:32:12.960Z,10.13
2023-02-12T04:35:06.606Z,11.90
2023-02-12T04:37:57.501Z,13.93
2023-02-12T04:40:45.449Z,8.70
2023-02-12T04:43:36.471Z,15.63
2023-02-12T04:46:23.653Z,8.10
2023-02-12T04:49:15.788Z,16.33
2023-02-12T04:52:02.395Z,12.73
2023-02-12T04:54:49.205Z,15.30
2023-02-12T04:57:36.107Z,21.83
2023-02-12T05:00:23.344Z,9.67
2023-02-12T05:03:10.300Z,20.70
2023-02-12T05:06:04.081Z,18.67
2023-02-12T05:08:50.709Z,13.60
2023-02-12T05:11:37.332Z,16.03
2023-02-12T05:14:25.769Z,17.20
2023-02-12T05:17:12.418Z,13.53
2023-02-12T05:19:59.285Z,11.83
2023-02-12T05:22:47.427Z,16.47
2023-02-12T05:25:34.140Z,17.87
2023-02-12T05:28:21.024Z,15.13
2023-02-12T05:31:10.492Z,16.70
2023-02-12T05:33:57.369Z,8.90
2023-02-12T05:36:44.187Z,12.90
2023-02-12T05:39:32.612Z,17.13
2023-02-12T05:42:19.044Z,15.33
2023-02-12T05:45:06.700Z,15.33
2023-02-12T05:47:53.318Z,13.03
2023-02-12T05:50:40.108Z,12.13
2023-02-12T05:53:27.895Z,5.23
2023-02-12T05:56:18.478Z,12.83
2023-02-12T05:59:07.256Z,12.33
2023-02-12T06:01:53.975Z,13.77
2023-02-12T06:04:40.409Z,23.07
2023-02-12T06:07:27.173Z,12.10
2023-02-12T06:10:13.907Z,5.67
2023-02-12T06:13:01.942Z,6.50
2023-02-12T06:15:48.771Z,6.87
2023-02-12T06:18:37.264Z,21.40
2023-02-12T06:21:25.707Z,8.23
2023-02-12T06:24:13.525Z,18.77
2023-02-12T06:27:00.318Z,14.63
2023-02-12T06:29:48.491Z,9.50
2023-02-12T06:32:35.196Z,15.07
2023-02-12T06:35:21.964Z,5.47
2023-02-12T06:38:09.422Z,25.87
2023-02-12T06:40:56.157Z,15.73
2023-02-12T06:43:43.121Z,14.37
2023-02-12T06:46:31.617Z,7.10
2023-02-12T06:49:17.989Z,7.50
2023-02-12T06:52:04.860Z,9.43
2023-02-12T06:54:51.769Z,14.90
2023-02-12T06:57:38.739Z,8.57
2023-02-12T07:00:25.691Z,15.20
2023-02-12T07:03:14.284Z,11.77
2023-02-12T07:06:01.136Z,6.77
2023-02-12T07:08:47.817Z,7.30
2023-02-12T07:11:38.359Z,9.17
2023-02-12T07:14:25.282Z,5.10
2023-02-12T07:17:12.119Z,8.23
2023-02-12T07:20:00.274Z,10.07
2023-02-12T07:22:47.030Z,13.20
2023-02-12T07:25:33.897Z,10.43
2023-02-12T07:28:20.773Z,4.83
2023-02-12T07:31:09.010Z,3.87
2023-02-12T07:33:56.874Z,10.47
2023-02-12T07:36:44.983Z,15.13
2023-02-12T07:39:31.760Z,8.00
2023-02-12T07:42:19.144Z,11.13
2023-02-12T07:45:10.344Z,11.57
2023-02-12T07:47:56.917Z,17.03
2023-02-12T07:50:43.616Z,9.37
2023-02-12T07:53:31.768Z,13.97
2023-02-12T07:56:20.522Z,12.67
2023-02-12T07:59:09.134Z,17.40
2023-02-12T08:01:56.404Z,14.53
2023-02-12T08:04:42.940Z,15.00
2023-02-12T08:07:30.471Z,11.30
2023-02-12T08:10:22.361Z,16.80
2023-02-12T08:13:08.804Z,19.87
2023-02-12T08:16:01.472Z,10.17
2023-02-12T08:18:48.643Z,8.47
2023-02-12T08:21:35.629Z,10.60
2023-02-12T08:24:23.044Z,17.90
2023-02-12T08:27:11.043Z,18.57
2023-02-12T08:29:57.913Z,13.07
2023-02-12T08:32:45.279Z,10.80
2023-02-12T08:35:31.753Z,12.27
2023-02-12T08:38:18.399Z,13.90
2023-02-12T08:41:08.840Z,13.53
2023-02-12T08:43:58.833Z,13.47
2023-02-12T08:46:47.901Z,17.60
2023-02-12T08:49:34.702Z,15.33
2023-02-12T08:52:21.364Z,12.80
2023-02-12T08:55:08.902Z,13.60
2023-02-12T08:57:58.153Z,19.53
2023-02-12T09:00:46.071Z,15.10
2023-02-12T09:03:32.981Z,22.50
2023-02-12T09:06:21.897Z,11.77
2023-02-12T09:09:08.444Z,16.93
2023-02-12T09:11:55.149Z,9.97
2023-02-12T09:14:42.028Z,6.87
2023-02-12T09:17:30.645Z,25.23
2023-02-12T09:20:17.396Z,13.07
2023-02-12T09:23:04.520Z,16.97
2023-02-12T09:25:51.189Z,10.93
2023-02-12T09:28:38.559Z,10.10
2023-02-12T09:31:27.898Z,16.97
2023-02-12T09:34:16.078Z,5.83
2023-02-12T09:37:02.942Z,5.40
2023-02-12T09:39:51.270Z,14.73
2023-02-12T09:42:53.645Z,13.33
2023-02-12T09:45:45.197Z,15.63
2023-02-12T09:48:40.763Z,13.33
2023-02-12T09:51:30.473Z,6.30
2023-02-12T09:54:19.567Z,8.87
2023-02-12T09:57:14.445Z,10.10
2023-02-12T10:00:06.608Z,11.43
2023-02-12T10:02:55.410Z,13.67
2023-02-12T10:05:46.475Z,10.73
2023-02-12T10:08:46.554Z,15.70
2023-02-12T10:11:51.985Z,11.57
2023-02-12T10:14:59.717Z,13.10
2023-02-12T10:17:55.071Z,12.53
2023-02-12T10:20:53.196Z,10.07
2023-02-12T10:24:01.209Z,12.73
2023-02-12T10:26:50.332Z,12.40
2023-02-12T10:29:42.542Z,14.73
2023-02-12T10:32:32.027Z,10.30
2023-02-12T10:35:26.960Z,14.73
2023-02-12T10:38:18.795Z,16.03
2023-02-12T10:41:07.045Z,8.83
2023-02-12T10:43:54.046Z,9.10
2023-02-12T10:46:40.978Z,12.80
2023-02-12T10:49:28.024Z,13.37
2023-02-12T10:52:35.902Z,12.07
2023-02-12T10:55:27.967Z,10.80
2023-02-12T10:58:24.318Z,9.07
2023-02-12T11:01:18.336Z,9.70
2023-02-12T11:04:22.454Z,11.93
2023-02-12T11:07:10.865Z,6.77
2023-02-12T11:09:58.429Z,7.33
2023-02-12T11:12:48.412Z,12.27
2023-02-12T11:15:47.441Z,8.60
2023-02-12T11:18:36.698Z,8.50
2023-02-12T11:21:24.592Z,8.17
2023-02-12T11:24:31.915Z,10.70
2023-02-12T11:27:24.578Z,7.80
2023-02-12T11:30:20.350Z,5.83
2023-02-12T11:33:23.505Z,8.50
2023-02-12T11:36:25.157Z,7.27
2023-02-12T11:39:21.393Z,6.93
2023-02-12T11:42:16.716Z,11.53
2023-02-12T11:45:04.910Z,9.13
2023-02-12T11:47:52.924Z,7.50
2023-02-12T11:50:47.660Z,12.40
2023-02-12T11:53:37.642Z,8.57
2023-02-12T11:56:24.646Z,10.23
2023-02-12T11:59:19.252Z,10.97
2023-02-12T12:02:23.428Z,11.90
2023-02-12T12:05:15.773Z,13.83
2023-02-12T12:08:08.641Z,9.37
2023-02-12T12:10:59.769Z,9.03
2023-02-12T12:13:52.133Z,8.40
2023-02-12T12:17:02.450Z,9.43
2023-02-12T12:19:57.891Z,13.00
2023-02-12T12:22:51.716Z,8.90
2023-02-12T12:25:46.308Z,11.63
2023-02-12T12:28:37.398Z,13.27
2023-02-12T12:31:29.867Z,11.30
2023-02-12T12:34:19.258Z,8.10
2023-02-12T12:37:32.312Z,6.50
2023-02-12T12:40:42.326Z,6.67
2023-02-12T12:43:43.248Z,9.07
2023-02-12T12:46:48.565Z,5.37
2023-02-12T12:49:55.242Z,5.20
2023-02-12T12:52:58.136Z,6.57
2023-02-12T12:56:12.836Z,5.00
2023-02-12T12:59:26.115Z,6.30
2023-02-12T13:02:43.634Z,2.27
2023-02-12T13:05:48.649Z,7.43
2023-02-12T13:08:48.500Z,8.53
2023-02-12T13:11:43.397Z,5.27
2023-02-12T13:14:45.065Z,3.83
2023-02-12T13:17:39.620Z,2.73
2023-02-12T13:20:38.345Z,2.40
2023-02-12T13:23:35.892Z,2.63
2023-02-12T13:26:30.779Z,5.10
2023-02-12T13:29:22.543Z,2.30
2023-02-12T13:32:17.726Z,2.47
2023-02-12T13:35:08.101Z,5.73
2023-02-12T13:37:56.469Z,1.63
2023-02-12T13:40:43.396Z,3.00
2023-02-12T13:43:50.712Z,5.07
2023-02-12T13:46:51.835Z,1.70
2023-02-12T13:49:45.972Z,3.90
2023-02-12T13:52:42.276Z,5.40
2023-02-12T13:55:35.535Z,1.63
2023-02-12T13:58:48.538Z,1.43
2023-02-12T14:01:43.313Z,2.63
2023-02-12T14:04:33.038Z,3.43
2023-02-12T14:07:22.936Z,3.47
2023-02-12T14:10:20.773Z,1.40
2023-02-12T14:13:18.664Z,1.70
2023-02-12T14:16:36.174Z,3.63
2023-02-12T14:19:57.164Z,2.77
2023-02-12T14:23:34.058Z,2.90
2023-02-12T14:26:24.651Z,1.87
2023-02-12T14:29:21.136Z,5.13
2023-02-12T14:32:40.391Z,3.03
2023-02-12T14:35:34.208Z,2.03
2023-02-12T14:39:01.335Z,2.10
2023-02-12T14:41:50.302Z,4.60
2023-02-12T14:44:47.413Z,2.53
2023-02-12T14:47:55.344Z,5.67
2023-02-12T14:50:50.530Z,8.87
2023-02-12T14:53:40.537Z,2.73
2023-02-12T14:56:27.661Z,1.87
2023-02-12T14:59:22.577Z,3.03
2023-02-12T15:02:15.287Z,2.37
2023-02-12T15:05:05.390Z,4.03
2023-02-12T15:07:58.397Z,4.47
2023-02-12T15:10:51.050Z,6.80
2023-02-12T15:13:49.549Z,3.60
2023-02-12T15:16:46.530Z,4.23
2023-02-12T15:19:41.707Z,5.27
2023-02-12T15:22:32.470Z,5.50
2023-02-12T15:25:25.144Z,6.43
2023-02-12T15:28:20.278Z,3.43
2023-02-12T15:31:11.037Z,2.50
2023-02-12T15:34:01.060Z,6.03
2023-02-12T15:36:47.882Z,3.30
2023-02-12T15:39:43.547Z,5.30
2023-02-12T15:42:32.657Z,4.67
2023-02-12T15:45:22.288Z,5.30
2023-02-12T15:48:14.664Z,6.33
2023-02-12T15:51:10.676Z,3.63
2023-02-12T15:53:59.638Z,3.77
2023-02-12T15:56:46.444Z,7.33
2023-02-12T15:59:33.027Z,4.60
2023-02-12T16:02:22.751Z,4.33
2023-02-12T16:05:15.873Z,6.90
2023-02-12T16:08:04.434Z,4.57
2023-02-12T16:10:54.438Z,5.03
2023-02-12T16:13:45.422Z,5.83
2023-02-12T16:16:40.796Z,5.43
2023-02-12T16:19:29.420Z,4.83
2023-02-12T16:22:19.629Z,5.77
2023-02-12T16:25:16.719Z,4.20
2023-02-12T16:28:07.036Z,6.00
2023-02-12T16:30:53.876Z,7.03
2023-02-12T16:33:48.729Z,5.93
2023-02-12T16:36:39.190Z,4.37
2023-02-12T16:40:14.227Z,5.50
2023-02-12T16:43:26.543Z,5.53
2023-02-12T16:46:15.129Z,6.50
2023-02-12T16:49:03.409Z,4.17
2023-02-12T16:51:51.082Z,6.90
2023-02-12T16:54:38.039Z,4.33
2023-02-12T16:57:24.900Z,3.63
2023-02-12T17:00:17.639Z,9.73
2023-02-12T17:03:04.272Z,5.27
2023-02-12T17:05:52.495Z,5.80
2023-02-12T17:08:39.396Z,5.07
2023-02-12T17:11:27.162Z,6.10
2023-02-12T17:14:16.752Z,8.03
2023-02-12T17:17:07.841Z,5.47
2023-02-12T17:19:54.529Z,3.67
2023-02-12T17:22:46.335Z,5.17
2023-02-12T17:25:34.143Z,10.20
2023-02-12T17:28:21.204Z,7.47
2023-02-12T17:31:08.170Z,5.87
2023-02-12T17:33:56.456Z,6.53
2023-02-12T17:36:43.611Z,5.77
2023-02-12T17:39:30.746Z,5.30
2023-02-12T17:42:17.512Z,5.67
2023-02-12T17:45:04.428Z,9.60
2023-02-12T17:47:50.864Z,9.30
2023-02-12T17:50:40.484Z,7.93
2023-02-12T17:53:27.381Z,7.30
2023-02-12T17:56:17.573Z,4.37
2023-02-12T17:59:04.410Z,8.77
2023-02-12T18:01:51.188Z,6.10
2023-02-12T18:04:38.008Z,7.57
2023-02-12T18:07:26.277Z,5.17
2023-02-12T18:10:13.397Z,7.53
2023-02-12T18:13:00.013Z,5.43
2023-02-12T18:15:46.892Z,5.97
2023-02-12T18:18:33.640Z,6.13
2023-02-12T18:21:20.603Z,5.97
2023-02-12T18:24:09.567Z,9.87
2023-02-12T18:26:56.306Z,3.70
2023-02-12T18:29:43.134Z,5.43
2023-02-12T18:32:30.015Z,7.07
2023-02-12T18:35:16.872Z,7.07
2023-02-12T18:38:03.823Z,10.10
2023-02-12T18:40:51.897Z,5.50
2023-02-12T18:43:39.064Z,6.43
2023-02-12T18:46:27.276Z,6.40
2023-02-12T18:49:14.414Z,6.87
2023-02-12T18:52:02.100Z,6.50
2023-02-12T18:54:48.496Z,8.53
2023-02-12T18:57:36.625Z,5.83
2023-02-12T19:00:23.592Z,6.57
2023-02-12T19:03:10.280Z,7.40
2023-02-12T19:06:03.950Z,6.90
2023-02-12T19:08:50.557Z,7.37
2023-02-12T19:11:37.329Z,6.60
2023-02-12T19:14:26.421Z,4.10
2023-02-12T19:17:13.124Z,10.73
2023-02-12T19:19:59.847Z,6.73
2023-02-12T19:22:47.290Z,6.03
2023-02-12T19:25:36.023Z,6.67
2023-02-12T19:28:22.498Z,5.33
2023-02-12T19:31:16.429Z,9.67
2023-02-12T19:34:05.455Z,8.10
2023-02-12T19:36:52.584Z,5.67
2023-02-12T19:39:39.650Z,6.80
2023-02-12T19:42:26.491Z,8.50
2023-02-12T19:45:13.135Z,5.20
2023-02-12T19:48:04.895Z,4.67
2023-02-12T19:50:52.002Z,6.13
2023-02-12T19:53:38.948Z,7.97
2023-02-12T19:56:26.121Z,10.40
2023-02-12T19:59:14.558Z,5.43
2023-02-12T20:02:02.626Z,4.97
2023-02-12T20:04:50.517Z,4.33
2023-02-12T20:07:37.107Z,5.07
2023-02-12T20:10:24.025Z,8.87
2023-02-12T20:13:10.757Z,3.47
2023-02-12T20:15:57.410Z,8.73
2023-02-12T20:18:44.567Z,9.30
2023-02-12T20:21:33.078Z,10.00
2023-02-12T20:24:19.906Z,12.43
2023-02-12T20:27:06.797Z,11.00
2023-02-12T20:29:53.864Z,10.63
2023-02-12T20:32:41.940Z,7.47
2023-02-12T20:35:29.843Z,14.70
2023-02-12T20:38:19.291Z,9.57
2023-02-12T20:41:08.104Z,12.83
2023-02-12T20:43:55.577Z,8.87
2023-02-12T20:46:42.668Z,8.60
2023-02-12T20:49:29.408Z,7.93
2023-02-12T20:52:16.420Z,7.27
2023-02-12T20:55:04.873Z,8.07
2023-02-12T20:57:51.798Z,8.43
2023-02-12T21:00:38.736Z,10.87
2023-02-12T21:06:13.454Z,8.00
2023-02-12T21:09:00.474Z,7.97
2023-02-12T21:11:49.716Z,9.80
2023-02-12T21:14:41.177Z,8.50
2023-02-12T21:17:28.706Z,9.03
2023-02-12T21:20:15.229Z,14.90
2023-02-12T21:23:02.104Z,13.77
2023-02-12T21:25:48.922Z,12.47
2023-02-12T21:28:37.650Z,12.83
2023-02-12T21:31:26.395Z,12.47
2023-02-12T21:34:15.512Z,12.03
2023-02-12T21:37:02.780Z,11.50
2023-02-12T21:39:49.135Z,15.03
2023-02-12T21:42:35.876Z,16.80
2023-02-12T21:45:23.997Z,13.53
2023-02-12T21:48:10.690Z,19.20
2023-02-12T21:50:58.271Z,16.07
2023-02-12T21:53:44.969Z,16.43
2023-02-12T21:56:32.015Z,17.67
2023-02-12T21:59:26.729Z,19.83
2023-02-12T22:02:14.738Z,14.57
2023-02-12T22:05:01.382Z,14.43
2023-02-12T22:07:49.970Z,25.73
2023-02-12T22:10:37.320Z,17.20
2023-02-12T22:13:24.204Z,14.10
2023-02-12T22:16:12.082Z,15.83
2023-02-12T22:19:02.362Z,17.80
2023-02-12T22:21:51.586Z,18.90
2023-02-12T22:24:38.201Z,19.47
2023-02-12T22:27:24.705Z,17.37
2023-02-12T22:30:12.275Z,21.50
2023-02-12T22:32:58.671Z,19.53
2023-02-12T22:35:46.945Z,19.93
2023-02-12T22:38:34.593Z,25.13
2023-02-12T22:41:21.771Z,24.70
2023-02-12T22:44:08.623Z,24.00
2023-02-12T22:46:55.330Z,24.23
2023-02-12T22:49:42.230Z,29.03
2023-02-12T22:52:32.992Z,27.00
2023-02-12T22:55:19.772Z,25.73
2023-02-12T22:58:06.524Z,27.67
2023-02-12T23:00:53.258Z,20.83
2023-02-12T23:03:40.521Z,24.30
2023-02-12T23:06:30.233Z,21.13
2023-02-12T23:09:19.871Z,30.40
2023-02-12T23:12:07.990Z,23.23
2023-02-12T23:14:57.615Z,22.93
2023-02-12T23:17:44.468Z,17.40
2023-02-12T23:20:31.220Z,22.43
2023-02-12T23:23:18.400Z,14.43
2023-02-12T23:26:07.034Z,17.53
2023-02-12T23:28:53.885Z,10.53
2023-02-12T23:31:40.786Z,9.37
2023-02-12T23:34:27.412Z,11.63
2023-02-12T23:37:14.049Z,9.80
2023-02-12T23:40:00.800Z,8.97
2023-02-12T23:42:48.921Z,7.83
2023-02-12T23:45:35.964Z,11.17
2023-02-12T23:48:22.550Z,7.93
2023-02-12T23:51:09.380Z,9.03
2023-02-12T23:53:57.509Z,7.17
2023-02-12T23:56:44.656Z,6.33
2023-02-12T23:59:32.915Z,4.03
